createdAt,value
2019-05-13T00:01:00.280Z,0.80
2019-05-13T00:03:04.729Z,0.97
2019-05-13T00:05:09.148Z,1.00
2019-05-13T00:07:13.551Z,1.13
2019-05-13T00:09:18.054Z,1.07
2019-05-13T00:11:23.967Z,1.07
2019-05-13T00:13:28.536Z,0.90
2019-05-13T00:15:34.244Z,0.70
2019-05-13T00:17:39.630Z,0.80
2019-05-13T00:19:44.332Z,1.00
2019-05-13T00:21:48.948Z,1.10
2019-05-13T00:23:53.574Z,0.77
2019-05-13T00:25:58.122Z,1.10
2019-05-13T00:28:04.027Z,1.03
2019-05-13T00:30:08.976Z,1.23
2019-05-13T00:32:13.576Z,1.00
2019-05-13T00:34:17.934Z,0.93
2019-05-13T00:36:24.320Z,1.23
2019-05-13T00:38:28.388Z,1.20
2019-05-13T00:40:33.688Z,0.97
2019-05-13T00:42:38.486Z,1.03
2019-05-13T00:44:44.324Z,1.07
2019-05-13T00:46:49.348Z,0.80
2019-05-13T00:48:54.207Z,1.13
2019-05-13T00:50:58.616Z,0.93
2019-05-13T00:53:04.432Z,1.40
2019-05-13T00:55:10.365Z,1.07
2019-05-13T00:57:14.774Z,0.90
2019-05-13T00:59:19.104Z,0.67
2019-05-13T01:01:24.398Z,1.07
2019-05-13T01:03:28.787Z,1.17
2019-05-13T01:05:33.971Z,1.33
2019-05-13T01:07:38.619Z,1.10
2019-05-13T01:09:44.620Z,1.00
2019-05-13T01:11:49.613Z,1.27
2019-05-13T01:13:53.960Z,1.10
2019-05-13T01:15:58.680Z,0.90
2019-05-13T01:18:03.959Z,1.13
2019-05-13T01:20:09.031Z,1.37
2019-05-13T01:22:13.626Z,0.87
2019-05-13T01:24:17.949Z,1.13
2019-05-13T01:26:23.270Z,0.83
2019-05-13T01:28:28.102Z,1.37
2019-05-13T01:30:34.583Z,1.10
2019-05-13T01:32:39.147Z,1.10
2019-05-13T01:34:44.309Z,0.97
2019-05-13T01:36:48.768Z,1.27
2019-05-13T01:38:54.090Z,0.87
2019-05-13T01:40:59.029Z,1.10
2019-05-13T01:43:03.741Z,1.30
2019-05-13T01:45:08.503Z,1.10
2019-05-13T01:47:13.511Z,1.20
2019-05-13T01:49:18.707Z,1.40
2019-05-13T01:51:23.982Z,1.10
2019-05-13T01:53:28.913Z,1.40
2019-05-13T01:55:34.189Z,1.30
2019-05-13T01:57:38.803Z,1.03
2019-05-13T01:59:43.618Z,1.27
2019-05-13T02:01:48.043Z,1.50
2019-05-13T02:03:54.550Z,0.93
2019-05-13T02:05:58.583Z,1.37
2019-05-13T02:08:04.487Z,0.97
2019-05-13T02:10:11.140Z,1.10
2019-05-13T02:12:15.470Z,1.10
2019-05-13T02:14:19.779Z,1.43
2019-05-13T02:16:24.457Z,1.60
2019-05-13T02:18:28.879Z,1.40
2019-05-13T02:20:33.602Z,1.37
2019-05-13T02:22:38.915Z,1.60
2019-05-13T02:24:45.010Z,1.17
2019-05-13T02:26:49.718Z,2.10
2019-05-13T02:28:54.240Z,1.40
2019-05-13T02:30:59.055Z,1.30
2019-05-13T02:33:03.500Z,1.27
2019-05-13T02:35:08.003Z,1.27
2019-05-13T02:37:13.005Z,1.53
2019-05-13T02:39:17.434Z,1.60
2019-05-13T02:41:22.823Z,1.47
2019-05-13T02:43:27.436Z,1.70
2019-05-13T02:45:33.515Z,1.60
2019-05-13T02:47:38.216Z,1.30
2019-05-13T02:49:43.242Z,1.23
2019-05-13T02:51:48.640Z,1.10
2019-05-13T02:53:53.052Z,1.23
2019-05-13T02:55:57.584Z,1.20
2019-05-13T02:58:03.267Z,1.20
2019-05-13T03:00:12.534Z,1.70
2019-05-13T03:02:15.373Z,1.53
2019-05-13T03:04:19.768Z,0.87
2019-05-13T03:06:24.103Z,1.30
2019-05-13T03:08:46.410Z,1.20
2019-05-13T03:10:34.798Z,1.40
2019-05-13T03:12:41.614Z,1.57
2019-05-13T03:14:48.525Z,1.23
2019-05-13T03:17:16.631Z,1.83
2019-05-13T03:19:22.466Z,1.40
2019-05-13T03:21:27.174Z,1.50
2019-05-13T03:23:32.944Z,1.57
2019-05-13T03:25:37.590Z,2.10
2019-05-13T03:27:42.946Z,1.67
2019-05-13T03:29:47.701Z,2.83
2019-05-13T03:31:55.817Z,1.40
2019-05-13T03:33:58.178Z,1.47
2019-05-13T03:36:06.298Z,1.63
2019-05-13T03:38:12.504Z,1.73
2019-05-13T03:40:15.252Z,1.20
2019-05-13T03:42:22.744Z,1.63
2019-05-13T03:44:32.506Z,2.07
2019-05-13T03:46:42.345Z,1.90
2019-05-13T03:48:47.357Z,2.07
2019-05-13T03:50:53.345Z,1.80
2019-05-13T03:52:58.395Z,1.90
2019-05-13T03:55:03.331Z,1.40
2019-05-13T03:57:12.423Z,2.33
2019-05-13T03:59:15.501Z,2.77
2019-05-13T04:01:22.370Z,2.93
2019-05-13T04:03:25.888Z,2.03
2019-05-13T04:05:33.499Z,2.17
2019-05-13T04:07:36.996Z,2.07
2019-05-13T04:09:42.429Z,1.57
2019-05-13T04:11:47.303Z,2.20
2019-05-13T04:13:52.997Z,2.30
2019-05-13T04:15:57.585Z,2.50
2019-05-13T04:18:05.765Z,2.40
2019-05-13T04:20:12.549Z,2.30
2019-05-13T04:22:16.696Z,2.03
2019-05-13T04:24:23.227Z,2.97
2019-05-13T04:26:28.375Z,2.23
2019-05-13T04:28:33.339Z,1.97
2019-05-13T04:30:37.770Z,1.73
2019-05-13T04:32:44.200Z,1.20
2019-05-13T04:34:48.376Z,2.07
2019-05-13T04:36:53.045Z,1.87
2019-05-13T04:38:58.062Z,2.20
2019-05-13T04:41:03.656Z,1.97
2019-05-13T04:43:08.609Z,2.50
2019-05-13T04:45:13.560Z,2.20
2019-05-13T04:47:18.774Z,1.63
2019-05-13T04:49:23.668Z,2.47
2019-05-13T04:51:28.863Z,2.03
2019-05-13T04:53:34.744Z,1.63
2019-05-13T04:55:42.532Z,2.00
2019-05-13T04:57:45.810Z,2.10
2019-05-13T04:59:51.704Z,1.63
2019-05-13T05:02:48.467Z,2.07
2019-05-13T05:04:54.760Z,2.00
2019-05-13T05:07:26.024Z,1.60
2019-05-13T05:10:17.674Z,1.87
2019-05-13T05:12:54.001Z,2.07
2019-05-13T05:15:19.417Z,1.87
2019-05-13T05:18:02.607Z,2.07
2019-05-13T05:20:15.071Z,1.67
2019-05-13T05:22:27.182Z,1.90
2019-05-13T05:25:04.628Z,1.23
2019-05-13T05:28:04.018Z,2.33
2019-05-13T05:30:42.422Z,1.43
2019-05-13T05:33:18.195Z,1.80
2019-05-13T05:36:01.694Z,1.97
2019-05-13T05:38:43.604Z,2.03
2019-05-13T05:40:51.054Z,2.33
2019-05-13T05:42:56.707Z,1.87
2019-05-13T05:45:02.748Z,1.87
2019-05-13T05:47:11.237Z,2.37
2019-05-13T05:49:17.598Z,2.53
2019-05-13T05:51:24.903Z,2.77
2019-05-13T05:53:31.979Z,2.40
2019-05-13T05:55:37.214Z,1.90
2019-05-13T05:57:42.958Z,2.00
2019-05-13T05:59:47.992Z,2.13
2019-05-13T06:01:55.240Z,2.10
2019-05-13T06:04:01.555Z,1.73
2019-05-13T06:06:06.556Z,2.20
2019-05-13T06:08:11.473Z,2.67
2019-05-13T06:10:16.327Z,1.73
2019-05-13T06:12:21.587Z,2.43
2019-05-13T06:14:26.003Z,1.77
2019-05-13T06:16:32.022Z,1.50
2019-05-13T06:18:37.185Z,1.40
2019-05-13T06:20:41.931Z,2.30
2019-05-13T06:22:46.558Z,1.77
2019-05-13T06:24:52.168Z,1.57
2019-05-13T06:26:57.187Z,1.77
2019-05-13T06:29:02.825Z,1.93
2019-05-13T06:31:07.256Z,1.97
2019-05-13T06:33:12.147Z,2.00
2019-05-13T06:35:16.656Z,2.10
2019-05-13T06:37:21.792Z,2.17
2019-05-13T06:39:26.608Z,1.77
2019-05-13T06:41:32.405Z,1.87
2019-05-13T06:43:36.878Z,2.20
2019-05-13T06:45:42.090Z,1.80
2019-05-13T06:47:46.713Z,1.70
2019-05-13T06:49:51.578Z,2.50
2019-05-13T06:51:56.471Z,2.40
2019-05-13T06:54:02.324Z,1.97
2019-05-13T06:56:06.966Z,1.43
2019-05-13T06:58:11.656Z,1.63
2019-05-13T07:00:16.529Z,2.33
2019-05-13T07:02:21.596Z,2.20
2019-05-13T07:04:26.487Z,2.50
2019-05-13T07:06:32.312Z,2.20
2019-05-13T07:08:36.890Z,2.90
2019-05-13T07:10:41.683Z,1.97
2019-05-13T07:12:46.127Z,2.00
2019-05-13T07:14:51.803Z,2.00
2019-05-13T07:16:56.393Z,2.50
2019-05-13T07:19:02.651Z,2.50
2019-05-13T07:21:06.821Z,1.80
2019-05-13T07:23:12.142Z,1.87
2019-05-13T07:25:16.914Z,1.80
2019-05-13T07:27:22.894Z,1.73
2019-05-13T07:29:28.294Z,1.97
2019-05-13T07:31:32.673Z,1.47
2019-05-13T07:33:37.106Z,2.23
2019-05-13T07:35:44.446Z,1.97
2019-05-13T07:37:48.420Z,2.50
2019-05-13T07:39:53.151Z,2.07
2019-05-13T07:41:57.950Z,2.07
2019-05-13T07:44:02.690Z,1.30
2019-05-13T07:46:07.192Z,2.00
2019-05-13T07:48:20.465Z,2.13
2019-05-13T07:50:21.901Z,1.30
2019-05-13T07:52:26.305Z,1.57
2019-05-13T07:54:32.984Z,1.80
2019-05-13T07:56:36.759Z,2.20
2019-05-13T07:58:41.906Z,1.70
2019-05-13T08:00:46.414Z,2.30
2019-05-13T08:02:52.352Z,2.37
2019-05-13T08:04:56.852Z,1.80
2019-05-13T08:07:02.132Z,1.40
2019-05-13T08:09:09.166Z,2.30
2019-05-13T08:11:13.581Z,1.90
2019-05-13T08:13:19.447Z,1.77
2019-05-13T08:15:23.817Z,1.43
2019-05-13T08:17:28.142Z,1.37
2019-05-13T08:19:33.028Z,1.80
2019-05-13T08:21:37.992Z,1.33
2019-05-13T08:23:42.452Z,1.80
2019-05-13T08:25:46.870Z,1.90
2019-05-13T08:27:51.904Z,1.97
2019-05-13T08:29:56.483Z,2.30
2019-05-13T08:32:02.954Z,1.30
2019-05-13T08:34:07.656Z,1.47
2019-05-13T08:36:12.403Z,1.93
2019-05-13T08:38:16.897Z,2.10
2019-05-13T08:40:23.459Z,1.30
2019-05-13T08:42:27.912Z,1.80
2019-05-13T08:44:32.766Z,2.13
2019-05-13T08:46:38.440Z,2.03
2019-05-13T08:48:43.088Z,2.07
2019-05-13T08:50:47.442Z,1.40
2019-05-13T08:52:51.872Z,1.50
2019-05-13T08:54:56.272Z,1.73
2019-05-13T08:57:02.825Z,1.10
2019-05-13T08:59:07.155Z,1.03
2019-05-13T09:01:12.343Z,1.47
2019-05-13T09:03:17.298Z,2.07
2019-05-13T09:05:21.671Z,1.30
2019-05-13T09:07:26.043Z,1.10
2019-05-13T09:09:31.431Z,1.40
2019-05-13T09:11:36.017Z,1.70
2019-05-13T09:13:42.356Z,1.80
2019-05-13T09:15:47.323Z,1.43
2019-05-13T09:17:52.404Z,1.53
2019-05-13T09:19:56.946Z,1.20
2019-05-13T09:22:02.921Z,1.20
2019-05-13T09:24:23.860Z,1.50
2019-05-13T09:26:13.980Z,1.53
2019-05-13T09:28:18.348Z,1.20
2019-05-13T09:30:26.776Z,1.60
2019-05-13T09:32:31.979Z,1.47
2019-05-13T09:34:36.773Z,1.43
2019-05-13T09:36:41.865Z,1.33
2019-05-13T09:38:46.306Z,1.20
2019-05-13T09:40:52.915Z,1.23
2019-05-13T09:42:56.878Z,1.13
2019-05-13T09:45:02.350Z,1.87
2019-05-13T09:47:07.019Z,2.10
2019-05-13T09:49:19.150Z,0.97
2019-05-13T09:51:17.891Z,1.40
2019-05-13T09:53:22.688Z,1.37
2019-05-13T09:55:29.298Z,1.17
2019-05-13T09:57:34.193Z,2.10
2019-05-13T09:59:38.580Z,1.07
2019-05-13T10:01:43.074Z,0.83
2019-05-13T10:03:54.833Z,1.20
2019-05-13T10:05:54.021Z,1.50
2019-05-13T10:07:58.502Z,1.10
2019-05-13T10:10:02.919Z,1.40
2019-05-13T10:12:08.131Z,2.17
2019-05-13T10:14:12.548Z,1.20
2019-05-13T10:16:17.228Z,1.40
2019-05-13T10:18:22.037Z,0.80
2019-05-13T10:20:47.758Z,1.47
2019-05-13T10:22:52.898Z,0.97
2019-05-13T10:24:57.840Z,0.90
2019-05-13T10:27:02.805Z,0.90
2019-05-13T10:29:11.679Z,1.40
2019-05-13T10:31:15.128Z,0.87
2019-05-13T10:33:22.150Z,0.87
2019-05-13T10:35:27.021Z,1.30
2019-05-13T10:37:32.055Z,1.57
2019-05-13T10:39:36.610Z,1.07
2019-05-13T10:41:42.360Z,1.10
2019-05-13T10:43:47.224Z,1.07
2019-05-13T10:45:52.575Z,1.00
2019-05-13T10:47:57.715Z,1.40
2019-05-13T10:50:03.035Z,1.50
2019-05-13T10:52:07.775Z,0.87
2019-05-13T10:54:12.226Z,1.83
2019-05-13T10:56:18.124Z,1.40
2019-05-13T10:58:23.582Z,1.20
2019-05-13T11:00:43.318Z,1.30
2019-05-13T11:02:47.855Z,1.50
2019-05-13T11:04:52.679Z,1.70
2019-05-13T11:06:57.320Z,1.20
2019-05-13T11:09:02.229Z,1.37
2019-05-13T11:11:06.938Z,1.67
2019-05-13T11:13:11.960Z,1.33
2019-05-13T11:15:16.389Z,1.37
2019-05-13T11:17:23.310Z,1.47
2019-05-13T11:19:33.373Z,1.17
2019-05-13T11:21:36.521Z,1.30
2019-05-13T11:23:41.074Z,1.60
2019-05-13T11:25:45.572Z,1.43
2019-05-13T11:27:52.468Z,1.43
2019-05-13T11:29:57.511Z,1.03
2019-05-13T11:32:02.757Z,1.77
2019-05-13T11:34:08.306Z,1.20
2019-05-13T11:36:18.679Z,1.00
2019-05-13T11:38:21.722Z,1.30
2019-05-13T11:40:25.505Z,1.23
2019-05-13T11:42:32.780Z,1.60
2019-05-13T11:44:36.361Z,0.67
2019-05-13T11:46:42.702Z,0.90
2019-05-13T11:48:47.393Z,1.30
2019-05-13T11:50:54.161Z,1.27
2019-05-13T11:52:57.813Z,0.80
2019-05-13T11:55:03.082Z,1.20
2019-05-13T11:57:08.465Z,1.00
2019-05-13T11:59:14.020Z,1.50
2019-05-13T12:01:22.599Z,1.10
2019-05-13T12:03:25.147Z,1.63
2019-05-13T12:05:32.650Z,1.07
2019-05-13T12:07:38.123Z,0.80
2019-05-13T12:09:42.734Z,1.30
2019-05-13T12:11:47.298Z,1.03
2019-05-13T12:13:52.769Z,0.90
2019-05-13T12:15:57.826Z,1.40
2019-05-13T12:18:02.952Z,1.20
2019-05-13T12:20:07.788Z,0.87
2019-05-13T12:22:13.167Z,0.80
2019-05-13T12:24:17.801Z,1.17
2019-05-13T12:26:23.758Z,1.17
2019-05-13T12:28:28.715Z,1.40
2019-05-13T12:30:33.819Z,1.20
2019-05-13T12:32:42.806Z,1.13
2019-05-13T12:34:46.316Z,1.20
2019-05-13T12:36:50.653Z,1.27
2019-05-13T12:38:55.085Z,1.30
2019-05-13T12:40:59.606Z,1.20
2019-05-13T12:43:04.238Z,1.97
2019-05-13T12:45:13.220Z,1.23
2019-05-13T12:47:15.074Z,1.30
2019-05-13T12:49:21.961Z,1.60
2019-05-13T12:51:26.064Z,1.73
2019-05-13T12:53:32.199Z,1.30
2019-05-13T12:55:36.490Z,1.30
2019-05-13T12:57:40.869Z,1.50
2019-05-13T12:59:45.286Z,1.03
2019-05-13T13:01:51.897Z,0.90
2019-05-13T13:03:56.032Z,1.00
2019-05-13T13:06:22.732Z,0.83
2019-05-13T13:08:24.679Z,0.70
2019-05-13T13:10:14.496Z,0.80
2019-05-13T13:12:24.221Z,1.00
2019-05-13T13:14:34.710Z,0.90
2019-05-13T13:16:34.631Z,1.20
2019-05-13T13:18:38.226Z,1.00
2019-05-13T13:20:42.683Z,1.00
2019-05-13T13:22:47.197Z,1.10
2019-05-13T13:24:56.734Z,1.30
2019-05-13T13:26:57.814Z,1.37
2019-05-13T13:29:02.838Z,1.37
2019-05-13T13:31:07.346Z,1.17
2019-05-13T13:33:15.126Z,1.30
2019-05-13T13:35:21.245Z,1.40
2019-05-13T13:37:25.278Z,1.27
2019-05-13T13:39:29.863Z,1.10
2019-05-13T13:41:35.883Z,1.00
2019-05-13T13:43:41.984Z,1.13
2019-05-13T13:46:07.642Z,1.40
2019-05-13T13:48:03.149Z,1.40
2019-05-13T13:50:03.467Z,0.97
2019-05-13T13:52:07.924Z,1.40
2019-05-13T13:54:12.513Z,1.40
2019-05-13T13:56:16.939Z,1.00
2019-05-13T13:58:25.483Z,0.83
2019-05-13T14:00:38.152Z,0.90
2019-05-13T14:02:37.045Z,1.17
2019-05-13T14:04:42.943Z,0.80
2019-05-13T14:08:52.590Z,1.13
2019-05-13T14:11:02.103Z,0.93
2019-05-13T14:13:07.127Z,1.20
2019-05-13T14:15:12.760Z,1.30
2019-05-13T14:17:17.187Z,1.23
2019-05-13T14:19:22.249Z,3.30
2019-05-13T14:21:28.012Z,1.27
2019-05-13T14:23:37.561Z,1.03
2019-05-13T14:25:42.028Z,1.10
2019-05-13T14:27:46.728Z,1.07
2019-05-13T14:29:52.679Z,1.40
2019-05-13T14:31:57.288Z,0.97
2019-05-13T14:34:03.658Z,0.93
2019-05-13T14:36:12.102Z,0.77
2019-05-13T14:38:15.503Z,1.00
2019-05-13T14:40:22.253Z,1.40
2019-05-13T14:42:26.417Z,1.30
2019-05-13T14:44:32.506Z,1.10
2019-05-13T14:46:47.117Z,1.20
2019-05-13T14:48:43.454Z,1.33
2019-05-13T14:50:48.347Z,1.47
2019-05-13T14:52:52.756Z,1.23
2019-05-13T14:54:57.261Z,1.13
2019-05-13T14:57:02.557Z,1.00
2019-05-13T14:59:07.064Z,0.80
2019-05-13T15:01:18.764Z,0.90
2019-05-13T15:03:17.764Z,1.30
2019-05-13T15:05:22.166Z,1.10
2019-05-13T15:07:26.991Z,1.10
2019-05-13T15:09:31.604Z,1.77
2019-05-13T15:11:36.407Z,1.17
2019-05-13T15:13:42.567Z,1.37
2019-05-13T15:15:47.567Z,1.40
2019-05-13T15:17:57.242Z,1.00
2019-05-13T15:20:04.721Z,1.33
2019-05-13T15:22:10.946Z,1.20
2019-05-13T15:24:15.937Z,1.40
2019-05-13T15:26:22.241Z,2.10
2019-05-13T15:28:28.021Z,1.17
2019-05-13T15:30:32.849Z,1.10
2019-05-13T15:32:37.324Z,1.03
2019-05-13T15:34:42.881Z,1.13
2019-05-13T15:36:54.316Z,1.13
2019-05-13T15:39:01.229Z,1.53
2019-05-13T15:41:05.128Z,1.00
2019-05-13T15:43:11.691Z,1.27
2019-05-13T15:45:15.752Z,1.40
2019-05-13T15:47:24.130Z,1.50
2019-05-13T15:49:26.330Z,1.20
2019-05-13T15:51:32.089Z,0.70
2019-05-13T15:53:36.659Z,1.20
2019-05-13T15:55:41.137Z,1.40
2019-05-13T15:57:46.079Z,1.10
2019-05-13T15:59:51.816Z,0.83
2019-05-13T16:02:01.356Z,1.20
2019-05-13T16:04:05.637Z,1.33
2019-05-13T16:06:10.305Z,1.30
2019-05-13T16:08:14.891Z,1.43
2019-05-13T16:10:19.647Z,1.20
2019-05-13T16:12:24.210Z,1.00
2019-05-13T16:14:31.499Z,0.90
2019-05-13T16:16:36.976Z,1.60
2019-05-13T16:18:43.786Z,1.30
2019-05-13T16:20:48.917Z,1.23
2019-05-13T16:22:53.537Z,1.20
2019-05-13T16:25:02.575Z,1.47
2019-05-13T16:27:07.713Z,1.20
2019-05-13T16:29:12.791Z,1.47
2019-05-13T16:31:17.421Z,1.50
2019-05-13T16:33:22.955Z,1.10
2019-05-13T16:35:27.456Z,1.60
2019-05-13T16:37:32.327Z,0.90
2019-05-13T16:39:36.832Z,1.23
2019-05-13T16:41:47.250Z,1.07
2019-05-13T16:43:52.885Z,1.00
2019-05-13T16:45:57.498Z,1.30
2019-05-13T16:48:04.163Z,1.10
2019-05-13T16:50:11.303Z,1.00
2019-05-13T16:52:15.382Z,1.30
2019-05-13T16:54:21.986Z,1.20
2019-05-13T16:56:30.251Z,0.80
2019-05-13T16:58:32.745Z,1.40
2019-05-13T17:00:37.125Z,1.10
2019-05-13T17:02:42.275Z,1.60
2019-05-13T17:04:46.870Z,1.20
2019-05-13T17:06:53.131Z,1.53
2019-05-13T17:08:58.517Z,1.23
2019-05-13T17:11:02.908Z,1.57
2019-05-13T17:13:07.323Z,1.30
2019-05-13T17:15:12.387Z,1.10
2019-05-13T17:17:17.132Z,1.60
2019-05-13T17:19:21.528Z,1.37
2019-05-13T17:21:25.907Z,1.53
2019-05-13T17:23:30.275Z,1.93
2019-05-13T17:25:34.724Z,1.40
2019-05-13T17:27:39.467Z,1.53
2019-05-13T17:29:43.992Z,1.40
2019-05-13T17:31:48.378Z,1.13
2019-05-13T17:33:53.148Z,1.37
2019-05-13T17:35:57.643Z,1.70
2019-05-13T17:38:03.083Z,1.40
2019-05-13T17:40:07.621Z,1.20
2019-05-13T17:42:12.340Z,1.40
2019-05-13T17:44:16.787Z,1.40
2019-05-13T17:46:21.854Z,1.40
2019-05-13T17:48:29.490Z,1.10
2019-05-13T17:50:32.695Z,1.20
2019-05-13T17:52:37.249Z,1.73
2019-05-13T17:54:42.783Z,1.13
2019-05-13T17:56:47.439Z,1.67
2019-05-13T17:58:52.226Z,1.93
2019-05-13T18:00:57.065Z,2.00
2019-05-13T18:03:01.953Z,1.47
2019-05-13T18:05:11.875Z,1.60
2019-05-13T18:07:16.176Z,1.70
2019-05-13T18:09:22.367Z,1.17
2019-05-13T18:11:27.155Z,1.30
2019-05-13T18:13:31.613Z,1.20
2019-05-13T18:15:36.886Z,1.33
2019-05-13T18:17:41.981Z,1.20
2019-05-13T18:19:46.402Z,1.87
2019-05-13T18:21:51.613Z,1.40
2019-05-13T18:23:56.443Z,2.20
2019-05-13T18:26:01.937Z,2.53
2019-05-13T18:28:07.041Z,1.30
2019-05-13T18:30:12.057Z,1.73
2019-05-13T18:32:16.475Z,1.57
2019-05-13T18:34:21.612Z,1.40
2019-05-13T18:36:26.322Z,1.30
2019-05-13T18:38:35.306Z,1.80
2019-05-13T18:40:42.008Z,1.73
2019-05-13T18:42:47.265Z,1.13
2019-05-13T18:44:53.771Z,1.30
2019-05-13T18:47:01.570Z,1.57
2019-05-13T18:49:07.830Z,1.33
2019-05-13T18:51:13.980Z,1.10
2019-05-13T18:53:21.362Z,1.40
2019-05-13T18:55:26.054Z,1.60
2019-05-13T18:57:32.037Z,1.30
2019-05-13T18:59:36.578Z,1.30
2019-05-13T19:01:41.088Z,1.13
2019-05-13T19:03:46.519Z,0.93
2019-05-13T19:05:53.829Z,1.33
2019-05-13T19:07:59.189Z,1.30
2019-05-13T19:10:04.135Z,0.90
2019-05-13T19:12:11.448Z,1.20
2019-05-13T19:14:17.895Z,1.57
2019-05-13T19:16:24.536Z,0.90
2019-05-13T19:18:32.001Z,1.37
2019-05-13T19:20:41.749Z,1.13
2019-05-13T19:22:48.783Z,1.30
2019-05-13T19:24:53.920Z,1.03
2019-05-13T19:27:03.098Z,1.20
2019-05-13T19:29:34.988Z,1.23
2019-05-13T19:31:42.541Z,1.23
2019-05-13T19:33:48.164Z,1.07
2019-05-13T19:35:55.649Z,1.33
2019-05-13T19:38:04.169Z,0.83
2019-05-13T19:40:15.502Z,1.60
2019-05-13T19:42:24.736Z,1.10
2019-05-13T19:44:31.536Z,1.57
2019-05-13T19:46:37.518Z,0.87
2019-05-13T19:48:56.373Z,1.03
2019-05-13T19:51:05.302Z,1.20
2019-05-13T19:53:12.859Z,1.27
2019-05-13T19:55:19.281Z,1.00
2019-05-13T19:57:31.621Z,2.27
2019-05-13T19:59:37.475Z,0.90
2019-05-13T20:01:51.650Z,0.93
2019-05-13T20:04:02.370Z,1.40
2019-05-13T20:06:12.087Z,1.10
2019-05-13T20:08:24.561Z,0.77
2019-05-13T20:10:32.177Z,1.00
2019-05-13T20:12:41.927Z,1.50
2019-05-13T20:14:46.844Z,1.20
2019-05-13T20:16:52.525Z,0.80
2019-05-13T20:19:01.306Z,0.87
2019-05-13T20:21:10.344Z,1.00
2019-05-13T20:34:15.627Z,1.37
2019-05-13T20:36:51.583Z,0.93
2019-05-13T20:42:24.840Z,0.90
2019-05-13T20:48:16.565Z,1.00
2019-05-13T20:50:21.808Z,0.90
2019-05-13T20:52:28.270Z,0.90
2019-05-13T20:54:34.803Z,1.27
2019-05-13T20:56:42.001Z,1.00
2019-05-13T20:58:48.405Z,1.47
2019-05-13T21:00:55.074Z,1.00
2019-05-13T21:03:02.842Z,0.80
2019-05-13T21:05:08.572Z,0.70
2019-05-13T21:07:25.808Z,0.60
2019-05-13T21:09:32.505Z,0.80
2019-05-13T21:11:37.399Z,0.90
2019-05-13T21:13:42.262Z,1.03
2019-05-13T21:15:47.570Z,1.00
2019-05-13T21:17:52.419Z,1.03
2019-05-13T21:19:59.811Z,1.07
2019-05-13T21:22:03.513Z,1.13
2019-05-13T21:24:08.264Z,0.90
2019-05-13T21:26:15.399Z,1.00
2019-05-13T21:28:18.979Z,1.00
2019-05-13T21:30:23.392Z,0.80
2019-05-13T21:32:27.798Z,0.90
2019-05-13T21:34:33.151Z,0.90
2019-05-13T21:36:37.677Z,0.80
2019-05-13T21:38:42.150Z,1.10
2019-05-13T21:40:46.695Z,1.00
2019-05-13T21:42:52.663Z,0.90
2019-05-13T21:44:57.437Z,0.77
2019-05-13T21:47:02.251Z,0.80
2019-05-13T21:49:07.226Z,1.00
2019-05-13T21:51:13.558Z,0.70
2019-05-13T21:53:18.265Z,0.63
2019-05-13T21:55:22.824Z,0.90
2019-05-13T21:57:27.286Z,0.60
2019-05-13T21:59:33.022Z,0.80
2019-05-13T22:01:37.983Z,0.83
2019-05-13T22:03:42.566Z,0.70
2019-05-13T22:05:47.193Z,1.30
2019-05-13T22:07:52.355Z,1.20
2019-05-13T22:09:56.756Z,0.77
2019-05-13T22:12:01.795Z,0.60
2019-05-13T22:14:06.528Z,0.73
2019-05-13T22:16:11.289Z,0.67
2019-05-13T22:18:15.753Z,0.80
2019-05-13T22:20:21.384Z,0.80
2019-05-13T22:22:26.365Z,0.90
2019-05-13T22:24:32.182Z,0.70
2019-05-13T22:26:36.836Z,0.57
2019-05-13T22:28:41.728Z,0.87
2019-05-13T22:30:46.654Z,0.63
2019-05-13T22:32:52.319Z,0.80
2019-05-13T22:34:56.799Z,0.60
2019-05-13T22:37:02.517Z,0.60
2019-05-13T22:39:07.830Z,1.03
2019-05-13T22:41:12.706Z,0.60
2019-05-13T22:43:18.077Z,1.00
2019-05-13T22:45:22.775Z,0.70
2019-05-13T22:47:27.153Z,1.17
2019-05-13T22:49:31.570Z,0.93
2019-05-13T22:51:36.016Z,0.70
2019-05-13T22:53:42.206Z,0.73
2019-05-13T22:55:46.724Z,0.60
2019-05-13T22:57:51.171Z,0.70
2019-05-13T22:59:55.614Z,0.90
2019-05-13T23:02:01.871Z,0.60
2019-05-13T23:04:06.331Z,0.70
2019-05-13T23:06:12.112Z,1.30
2019-05-13T23:08:16.602Z,1.03
2019-05-13T23:10:22.481Z,0.50
2019-05-13T23:12:27.143Z,0.80
2019-05-13T23:14:31.621Z,1.03
2019-05-13T23:16:36.839Z,0.70
2019-05-13T23:18:42.066Z,0.80
2019-05-13T23:20:51.456Z,0.80
2019-05-13T23:23:00.850Z,0.80
2019-05-13T23:25:13.612Z,0.80
2019-05-13T23:27:18.281Z,0.83
2019-05-13T23:29:26.266Z,1.00
2019-05-13T23:31:31.427Z,1.03
2019-05-13T23:33:37.888Z,0.60
2019-05-13T23:35:45.861Z,0.70
2019-05-13T23:37:51.006Z,0.90
2019-05-13T23:39:55.699Z,1.37
2019-05-13T23:42:01.418Z,0.67
2019-05-13T23:44:21.723Z,0.60
2019-05-13T23:46:15.302Z,0.70
2019-05-13T23:48:21.563Z,0.87
2019-05-13T23:50:25.922Z,1.00
2019-05-13T23:52:31.234Z,0.70
2019-05-13T23:54:35.783Z,0.70
2019-05-13T23:56:41.668Z,0.70
2019-05-13T23:58:46.552Z,0.83
